sensor_id;sensor_type;location;lat;lon;timestamp;P1;durP1;ratioP1;P2;durP2;ratioP2
61104;SDS011;46987;32.638;-115.438;2023-03-03T00:01:50;6.78;;;0.90;;
61104;SDS011;46987;32.638;-115.438;2023-03-03T00:04:18;4.63;;;0.65;;
61104;SDS011;46987;32.638;-115.438;2023-03-03T00:06:45;3.20;;;0.82;;
61104;SDS011;46987;32.638;-115.438;2023-03-03T00:09:11;10.15;;;1.13;;
61104;SDS011;46987;32.638;-115.438;2023-03-03T00:11:38;2.17;;;0.60;;
61104;SDS011;46987;32.638;-115.438;2023-03-03T00:14:09;12.98;;;1.52;;
61104;SDS011;46987;32.638;-115.438;2023-03-03T00:16:42;4.00;;;0.90;;
61104;SDS011;46987;32.638;-115.438;2023-03-03T00:19:11;6.38;;;0.98;;
61104;SDS011;46987;32.638;-115.438;2023-03-03T00:21:41;4.32;;;0.85;;
61104;SDS011;46987;32.638;-115.438;2023-03-03T00:24:14;6.30;;;0.93;;
61104;SDS011;46987;32.638;-115.438;2023-03-03T00:31:49;8.77;;;1.08;;
61104;SDS011;46987;32.638;-115.438;2023-03-03T00:34:19;4.13;;;0.80;;
61104;SDS011;46987;32.638;-115.438;2023-03-03T00:36:48;3.45;;;0.60;;
61104;SDS011;46987;32.638;-115.438;2023-03-03T00:39:18;3.58;;;0.80;;
61104;SDS011;46987;32.638;-115.438;2023-03-03T00:41:47;5.70;;;1.13;;
61104;SDS011;46987;32.638;-115.438;2023-03-03T00:44:26;2.42;;;0.60;;
61104;SDS011;46987;32.638;-115.438;2023-03-03T00:46:56;9.93;;;1.77;;
61104;SDS011;46987;32.638;-115.438;2023-03-03T00:49:26;4.20;;;0.98;;
61104;SDS011;46987;32.638;-115.438;2023-03-03T00:51:54;4.57;;;0.88;;
61104;SDS011;46987;32.638;-115.438;2023-03-03T00:54:21;4.10;;;0.70;;
61104;SDS011;46987;32.638;-115.438;2023-03-03T00:56:47;6.10;;;0.98;;
61104;SDS011;46987;32.638;-115.438;2023-03-03T00:59:14;6.20;;;1.10;;
61104;SDS011;46987;32.638;-115.438;2023-03-03T01:01:41;7.28;;;0.88;;
61104;SDS011;46987;32.638;-115.438;2023-03-03T01:04:08;5.22;;;0.85;;
61104;SDS011;46987;32.638;-115.438;2023-03-03T01:06:34;7.68;;;0.90;;
61104;SDS011;46987;32.638;-115.438;2023-03-03T01:09:02;3.97;;;0.90;;
61104;SDS011;46987;32.638;-115.438;2023-03-03T01:11:29;5.80;;;0.80;;
61104;SDS011;46987;32.638;-115.438;2023-03-03T01:13:56;4.80;;;1.27;;
61104;SDS011;46987;32.638;-115.438;2023-03-03T01:16:22;4.57;;;0.90;;
61104;SDS011;46987;32.638;-115.438;2023-03-03T01:18:49;5.22;;;0.98;;
61104;SDS011;46987;32.638;-115.438;2023-03-03T01:21:16;6.40;;;1.30;;
61104;SDS011;46987;32.638;-115.438;2023-03-03T01:23:43;3.30;;;1.00;;
61104;SDS011;46987;32.638;-115.438;2023-03-03T01:26:11;9.02;;;2.63;;
61104;SDS011;46987;32.638;-115.438;2023-03-03T01:28:38;9.35;;;2.97;;
61104;SDS011;46987;32.638;-115.438;2023-03-03T01:31:04;7.13;;;1.55;;
61104;SDS011;46987;32.638;-115.438;2023-03-03T01:33:31;4.85;;;1.60;;
61104;SDS011;46987;32.638;-115.438;2023-03-03T01:35:58;8.57;;;1.70;;
61104;SDS011;46987;32.638;-115.438;2023-03-03T01:38:24;9.07;;;2.30;;
61104;SDS011;46987;32.638;-115.438;2023-03-03T01:40:51;9.38;;;2.17;;
61104;SDS011;46987;32.638;-115.438;2023-03-03T01:43:20;6.10;;;2.20;;
61104;SDS011;46987;32.638;-115.438;2023-03-03T01:48:32;6.95;;;2.10;;
61104;SDS011;46987;32.638;-115.438;2023-03-03T01:51:00;7.07;;;1.75;;
61104;SDS011;46987;32.638;-115.438;2023-03-03T01:53:27;9.43;;;2.28;;
61104;SDS011;46987;32.638;-115.438;2023-03-03T01:55:55;7.40;;;2.63;;
61104;SDS011;46987;32.638;-115.438;2023-03-03T01:58:28;9.70;;;2.72;;
61104;SDS011;46987;32.638;-115.438;2023-03-03T02:00:56;10.45;;;3.45;;
61104;SDS011;46987;32.638;-115.438;2023-03-03T02:03:24;9.52;;;2.63;;
61104;SDS011;46987;32.638;-115.438;2023-03-03T02:05:51;11.25;;;3.00;;
61104;SDS011;46987;32.638;-115.438;2023-03-03T02:08:19;6.63;;;2.75;;
61104;SDS011;46987;32.638;-115.438;2023-03-03T02:10:47;15.75;;;3.40;;
61104;SDS011;46987;32.638;-115.438;2023-03-03T02:13:14;13.73;;;3.65;;
61104;SDS011;46987;32.638;-115.438;2023-03-03T02:15:43;16.13;;;3.63;;
61104;SDS011;46987;32.638;-115.438;2023-03-03T02:18:10;23.60;;;5.22;;
61104;SDS011;46987;32.638;-115.438;2023-03-03T02:20:42;18.67;;;5.72;;
61104;SDS011;46987;32.638;-115.438;2023-03-03T02:23:11;26.92;;;5.97;;
61104;SDS011;46987;32.638;-115.438;2023-03-03T02:25:41;18.27;;;5.97;;
61104;SDS011;46987;32.638;-115.438;2023-03-03T02:28:10;16.25;;;4.50;;
61104;SDS011;46987;32.638;-115.438;2023-03-03T02:30:37;18.42;;;4.38;;
61104;SDS011;46987;32.638;-115.438;2023-03-03T02:33:05;21.60;;;5.03;;
61104;SDS011;46987;32.638;-115.438;2023-03-03T02:35:32;18.10;;;5.18;;
61104;SDS011;46987;32.638;-115.438;2023-03-03T02:38:03;17.63;;;4.43;;
61104;SDS011;46987;32.638;-115.438;2023-03-03T02:40:35;25.52;;;6.00;;
61104;SDS011;46987;32.638;-115.438;2023-03-03T02:43:04;22.90;;;6.97;;
61104;SDS011;46987;32.638;-115.438;2023-03-03T02:45:33;22.70;;;6.70;;
61104;SDS011;46987;32.638;-115.438;2023-03-03T02:48:00;15.35;;;5.28;;
61104;SDS011;46987;32.638;-115.438;2023-03-03T02:50:26;24.25;;;5.85;;
61104;SDS011;46987;32.638;-115.438;2023-03-03T02:52:53;24.63;;;5.95;;
61104;SDS011;46987;32.638;-115.438;2023-03-03T02:55:19;20.90;;;5.65;;
61104;SDS011;46987;32.638;-115.438;2023-03-03T02:57:46;20.10;;;5.95;;
61104;SDS011;46987;32.638;-115.438;2023-03-03T03:00:13;21.48;;;8.00;;
61104;SDS011;46987;32.638;-115.438;2023-03-03T03:02:41;27.10;;;7.28;;
61104;SDS011;46987;32.638;-115.438;2023-03-03T03:05:08;20.52;;;8.98;;
61104;SDS011;46987;32.638;-115.438;2023-03-03T03:07:37;25.90;;;8.88;;
61104;SDS011;46987;32.638;-115.438;2023-03-03T03:10:04;35.70;;;12.70;;
61104;SDS011;46987;32.638;-115.438;2023-03-03T03:12:34;24.83;;;12.75;;
61104;SDS011;46987;32.638;-115.438;2023-03-03T03:15:01;27.92;;;10.63;;
61104;SDS011;46987;32.638;-115.438;2023-03-03T03:17:29;33.65;;;11.95;;
61104;SDS011;46987;32.638;-115.438;2023-03-03T03:20:01;38.38;;;12.52;;
61104;SDS011;46987;32.638;-115.438;2023-03-03T03:22:29;31.88;;;12.32;;
61104;SDS011;46987;32.638;-115.438;2023-03-03T03:24:56;30.35;;;11.52;;
61104;SDS011;46987;32.638;-115.438;2023-03-03T03:27:23;30.15;;;12.85;;
61104;SDS011;46987;32.638;-115.438;2023-03-03T03:29:50;47.75;;;16.52;;
61104;SDS011;46987;32.638;-115.438;2023-03-03T03:32:17;39.58;;;15.38;;
61104;SDS011;46987;32.638;-115.438;2023-03-03T03:34:44;45.33;;;14.95;;
61104;SDS011;46987;32.638;-115.438;2023-03-03T03:37:13;42.15;;;14.18;;
61104;SDS011;46987;32.638;-115.438;2023-03-03T03:39:43;47.03;;;13.93;;
61104;SDS011;46987;32.638;-115.438;2023-03-03T03:42:10;43.47;;;12.57;;
61104;SDS011;46987;32.638;-115.438;2023-03-03T03:44:36;56.42;;;13.45;;
61104;SDS011;46987;32.638;-115.438;2023-03-03T03:47:04;45.55;;;12.90;;
61104;SDS011;46987;32.638;-115.438;2023-03-03T03:49:30;43.08;;;12.48;;
61104;SDS011;46987;32.638;-115.438;2023-03-03T03:51:57;57.05;;;14.15;;
61104;SDS011;46987;32.638;-115.438;2023-03-03T03:54:29;49.80;;;12.75;;
61104;SDS011;46987;32.638;-115.438;2023-03-03T03:56:55;46.05;;;12.60;;
61104;SDS011;46987;32.638;-115.438;2023-03-03T03:59:22;39.10;;;12.55;;
61104;SDS011;46987;32.638;-115.438;2023-03-03T04:01:50;40.55;;;11.50;;
61104;SDS011;46987;32.638;-115.438;2023-03-03T04:04:18;42.92;;;11.68;;
61104;SDS011;46987;32.638;-115.438;2023-03-03T04:06:44;32.42;;;10.80;;
61104;SDS011;46987;32.638;-115.438;2023-03-03T04:09:12;28.85;;;9.35;;
61104;SDS011;46987;32.638;-115.438;2023-03-03T04:11:41;34.53;;;10.07;;
61104;SDS011;46987;32.638;-115.438;2023-03-03T04:14:09;29.55;;;8.43;;
61104;SDS011;46987;32.638;-115.438;2023-03-03T04:16:36;27.58;;;9.38;;
61104;SDS011;46987;32.638;-115.438;2023-03-03T04:19:03;36.25;;;8.57;;
61104;SDS011;46987;32.638;-115.438;2023-03-03T04:21:32;29.48;;;8.20;;
61104;SDS011;46987;32.638;-115.438;2023-03-03T04:24:01;25.10;;;8.32;;
61104;SDS011;46987;32.638;-115.438;2023-03-03T04:26:28;25.95;;;9.20;;
61104;SDS011;46987;32.638;-115.438;2023-03-03T04:28:59;30.10;;;8.63;;
61104;SDS011;46987;32.638;-115.438;2023-03-03T04:31:27;26.02;;;7.95;;
61104;SDS011;46987;32.638;-115.438;2023-03-03T04:33:54;27.35;;;8.45;;
61104;SDS011;46987;32.638;-115.438;2023-03-03T04:36:22;33.30;;;8.27;;
61104;SDS011;46987;32.638;-115.438;2023-03-03T04:38:49;22.17;;;7.38;;
61104;SDS011;46987;32.638;-115.438;2023-03-03T04:41:15;26.42;;;7.35;;
61104;SDS011;46987;32.638;-115.438;2023-03-03T04:43:42;23.35;;;6.15;;
61104;SDS011;46987;32.638;-115.438;2023-03-03T04:46:13;20.63;;;6.50;;
61104;SDS011;46987;32.638;-115.438;2023-03-03T04:48:39;21.02;;;6.38;;
61104;SDS011;46987;32.638;-115.438;2023-03-03T04:51:06;19.95;;;6.68;;
61104;SDS011;46987;32.638;-115.438;2023-03-03T04:53:35;19.52;;;5.45;;
61104;SDS011;46987;32.638;-115.438;2023-03-03T04:56:05;25.33;;;5.63;;
61104;SDS011;46987;32.638;-115.438;2023-03-03T04:58:31;17.35;;;6.28;;
61104;SDS011;46987;32.638;-115.438;2023-03-03T05:00:58;18.02;;;5.90;;
61104;SDS011;46987;32.638;-115.438;2023-03-03T05:03:29;20.30;;;6.55;;
61104;SDS011;46987;32.638;-115.438;2023-03-03T05:05:55;19.30;;;6.63;;
61104;SDS011;46987;32.638;-115.438;2023-03-03T05:08:22;22.33;;;5.40;;
61104;SDS011;46987;32.638;-115.438;2023-03-03T05:10:50;19.13;;;5.57;;
61104;SDS011;46987;32.638;-115.438;2023-03-03T05:13:17;18.02;;;5.38;;
61104;SDS011;46987;32.638;-115.438;2023-03-03T05:15:48;18.92;;;5.82;;
61104;SDS011;46987;32.638;-115.438;2023-03-03T05:18:14;18.83;;;5.68;;
61104;SDS011;46987;32.638;-115.438;2023-03-03T05:20:43;25.48;;;5.47;;
61104;SDS011;46987;32.638;-115.438;2023-03-03T05:23:09;17.88;;;6.28;;
61104;SDS011;46987;32.638;-115.438;2023-03-03T05:25:36;20.95;;;6.15;;
61104;SDS011;46987;32.638;-115.438;2023-03-03T05:28:03;18.42;;;5.82;;
61104;SDS011;46987;32.638;-115.438;2023-03-03T05:30:29;23.00;;;6.65;;
61104;SDS011;46987;32.638;-115.438;2023-03-03T05:32:56;21.90;;;6.88;;
61104;SDS011;46987;32.638;-115.438;2023-03-03T05:35:24;27.27;;;7.00;;
61104;SDS011;46987;32.638;-115.438;2023-03-03T05:37:52;20.90;;;7.32;;
61104;SDS011;46987;32.638;-115.438;2023-03-03T05:40:20;20.20;;;7.22;;
61104;SDS011;46987;32.638;-115.438;2023-03-03T05:42:46;21.90;;;7.50;;
61104;SDS011;46987;32.638;-115.438;2023-03-03T05:45:13;22.95;;;7.55;;
61104;SDS011;46987;32.638;-115.438;2023-03-03T05:47:39;21.80;;;6.97;;
61104;SDS011;46987;32.638;-115.438;2023-03-03T05:50:06;23.38;;;6.75;;
61104;SDS011;46987;32.638;-115.438;2023-03-03T05:52:32;20.60;;;6.25;;
61104;SDS011;46987;32.638;-115.438;2023-03-03T05:55:01;26.67;;;6.88;;
61104;SDS011;46987;32.638;-115.438;2023-03-03T05:57:27;20.80;;;9.38;;
61104;SDS011;46987;32.638;-115.438;2023-03-03T05:59:54;18.52;;;8.32;;
61104;SDS011;46987;32.638;-115.438;2023-03-03T06:02:20;28.92;;;7.45;;
61104;SDS011;46987;32.638;-115.438;2023-03-03T06:04:47;23.80;;;8.38;;
61104;SDS011;46987;32.638;-115.438;2023-03-03T06:07:15;13.98;;;6.88;;
61104;SDS011;46987;32.638;-115.438;2023-03-03T06:09:41;17.17;;;6.40;;
61104;SDS011;46987;32.638;-115.438;2023-03-03T06:12:10;24.95;;;6.70;;
61104;SDS011;46987;32.638;-115.438;2023-03-03T06:14:36;18.08;;;6.88;;
61104;SDS011;46987;32.638;-115.438;2023-03-03T06:17:03;16.25;;;5.82;;
61104;SDS011;46987;32.638;-115.438;2023-03-03T06:19:31;22.65;;;6.90;;
61104;SDS011;46987;32.638;-115.438;2023-03-03T06:21:57;26.85;;;7.03;;
61104;SDS011;46987;32.638;-115.438;2023-03-03T06:24:24;17.67;;;5.72;;
61104;SDS011;46987;32.638;-115.438;2023-03-03T06:26:55;24.00;;;5.93;;
61104;SDS011;46987;32.638;-115.438;2023-03-03T06:29:23;18.00;;;6.15;;
61104;SDS011;46987;32.638;-115.438;2023-03-03T06:31:49;21.05;;;6.43;;
61104;SDS011;46987;32.638;-115.438;2023-03-03T06:34:16;18.58;;;6.22;;
61104;SDS011;46987;32.638;-115.438;2023-03-03T06:36:42;19.33;;;5.72;;
61104;SDS011;46987;32.638;-115.438;2023-03-03T06:39:09;14.55;;;6.38;;
61104;SDS011;46987;32.638;-115.438;2023-03-03T06:41:36;21.90;;;6.47;;
61104;SDS011;46987;32.638;-115.438;2023-03-03T06:44:02;20.88;;;7.45;;
61104;SDS011;46987;32.638;-115.438;2023-03-03T06:46:31;21.73;;;6.38;;
61104;SDS011;46987;32.638;-115.438;2023-03-03T06:48:57;21.83;;;8.48;;
61104;SDS011;46987;32.638;-115.438;2023-03-03T06:51:24;21.15;;;7.38;;
61104;SDS011;46987;32.638;-115.438;2023-03-03T06:53:55;24.50;;;8.23;;
61104;SDS011;46987;32.638;-115.438;2023-03-03T06:56:22;21.73;;;7.65;;
61104;SDS011;46987;32.638;-115.438;2023-03-03T06:58:52;25.92;;;8.43;;
61104;SDS011;46987;32.638;-115.438;2023-03-03T07:01:19;17.48;;;7.97;;
61104;SDS011;46987;32.638;-115.438;2023-03-03T07:03:47;16.90;;;7.57;;
61104;SDS011;46987;32.638;-115.438;2023-03-03T07:06:19;30.85;;;7.55;;
61104;SDS011;46987;32.638;-115.438;2023-03-03T07:08:47;19.30;;;8.02;;
61104;SDS011;46987;32.638;-115.438;2023-03-03T07:11:15;21.63;;;8.45;;
61104;SDS011;46987;32.638;-115.438;2023-03-03T07:13:43;26.88;;;9.25;;
61104;SDS011;46987;32.638;-115.438;2023-03-03T07:16:12;30.33;;;9.50;;
61104;SDS011;46987;32.638;-115.438;2023-03-03T07:18:42;30.42;;;9.80;;
61104;SDS011;46987;32.638;-115.438;2023-03-03T07:21:15;27.75;;;10.25;;
61104;SDS011;46987;32.638;-115.438;2023-03-03T07:23:42;29.13;;;10.07;;
61104;SDS011;46987;32.638;-115.438;2023-03-03T07:26:11;27.40;;;9.88;;
61104;SDS011;46987;32.638;-115.438;2023-03-03T07:28:38;24.10;;;10.55;;
61104;SDS011;46987;32.638;-115.438;2023-03-03T07:31:14;23.15;;;10.10;;
61104;SDS011;46987;32.638;-115.438;2023-03-03T07:33:42;25.70;;;10.95;;
61104;SDS011;46987;32.638;-115.438;2023-03-03T07:36:21;24.42;;;10.20;;
61104;SDS011;46987;32.638;-115.438;2023-03-03T07:38:49;21.30;;;9.48;;
61104;SDS011;46987;32.638;-115.438;2023-03-03T07:41:18;29.20;;;8.80;;
61104;SDS011;46987;32.638;-115.438;2023-03-03T07:43:51;23.25;;;8.98;;
61104;SDS011;46987;32.638;-115.438;2023-03-03T07:46:24;22.50;;;8.90;;
61104;SDS011;46987;32.638;-115.438;2023-03-03T07:48:52;24.35;;;8.88;;
61104;SDS011;46987;32.638;-115.438;2023-03-03T07:51:22;21.48;;;8.30;;
61104;SDS011;46987;32.638;-115.438;2023-03-03T07:53:51;30.33;;;8.52;;
61104;SDS011;46987;32.638;-115.438;2023-03-03T07:56:21;14.80;;;6.50;;
61104;SDS011;46987;32.638;-115.438;2023-03-03T07:58:51;16.60;;;6.65;;
61104;SDS011;46987;32.638;-115.438;2023-03-03T08:01:22;18.95;;;7.45;;
61104;SDS011;46987;32.638;-115.438;2023-03-03T08:03:52;12.23;;;7.47;;
61104;SDS011;46987;32.638;-115.438;2023-03-03T08:06:34;17.40;;;7.15;;
61104;SDS011;46987;32.638;-115.438;2023-03-03T08:09:03;25.53;;;7.27;;
61104;SDS011;46987;32.638;-115.438;2023-03-03T08:11:40;18.85;;;8.00;;
61104;SDS011;46987;32.638;-115.438;2023-03-03T08:14:11;21.45;;;9.80;;
61104;SDS011;46987;32.638;-115.438;2023-03-03T08:16:40;18.80;;;7.68;;
61104;SDS011;46987;32.638;-115.438;2023-03-03T08:19:08;19.02;;;8.13;;
61104;SDS011;46987;32.638;-115.438;2023-03-03T08:21:38;21.83;;;7.95;;
61104;SDS011;46987;32.638;-115.438;2023-03-03T08:24:05;22.45;;;7.20;;
61104;SDS011;46987;32.638;-115.438;2023-03-03T08:26:31;21.63;;;7.43;;
61104;SDS011;46987;32.638;-115.438;2023-03-03T08:28:58;13.20;;;7.13;;
61104;SDS011;46987;32.638;-115.438;2023-03-03T08:31:26;15.10;;;6.47;;
61104;SDS011;46987;32.638;-115.438;2023-03-03T08:33:52;13.00;;;7.78;;
61104;SDS011;46987;32.638;-115.438;2023-03-03T08:36:19;18.35;;;7.45;;
61104;SDS011;46987;32.638;-115.438;2023-03-03T08:38:47;14.30;;;5.50;;
61104;SDS011;46987;32.638;-115.438;2023-03-03T08:41:14;11.32;;;5.65;;
61104;SDS011;46987;32.638;-115.438;2023-03-03T08:43:40;12.52;;;5.57;;
61104;SDS011;46987;32.638;-115.438;2023-03-03T08:46:08;14.25;;;5.13;;
61104;SDS011;46987;32.638;-115.438;2023-03-03T08:48:38;9.82;;;4.93;;
61104;SDS011;46987;32.638;-115.438;2023-03-03T08:51:04;10.15;;;4.95;;
61104;SDS011;46987;32.638;-115.438;2023-03-03T08:53:31;9.65;;;5.18;;
61104;SDS011;46987;32.638;-115.438;2023-03-03T08:56:03;11.63;;;5.15;;
61104;SDS011;46987;32.638;-115.438;2023-03-03T08:58:30;10.98;;;4.93;;
61104;SDS011;46987;32.638;-115.438;2023-03-03T09:00:56;13.80;;;6.60;;
61104;SDS011;46987;32.638;-115.438;2023-03-03T09:03:24;12.95;;;7.40;;
61104;SDS011;46987;32.638;-115.438;2023-03-03T09:05:50;13.80;;;7.00;;
61104;SDS011;46987;32.638;-115.438;2023-03-03T09:08:17;14.60;;;6.78;;
61104;SDS011;46987;32.638;-115.438;2023-03-03T09:10:43;11.43;;;5.93;;
61104;SDS011;46987;32.638;-115.438;2023-03-03T09:13:12;13.30;;;6.57;;
61104;SDS011;46987;32.638;-115.438;2023-03-03T09:15:39;13.07;;;4.85;;
61104;SDS011;46987;32.638;-115.438;2023-03-03T09:18:10;8.98;;;4.45;;
61104;SDS011;46987;32.638;-115.438;2023-03-03T09:20:39;11.40;;;4.63;;
61104;SDS011;46987;32.638;-115.438;2023-03-03T09:25:52;8.75;;;4.50;;
61104;SDS011;46987;32.638;-115.438;2023-03-03T09:28:23;16.30;;;7.35;;
61104;SDS011;46987;32.638;-115.438;2023-03-03T09:30:50;18.42;;;11.93;;
61104;SDS011;46987;32.638;-115.438;2023-03-03T09:33:22;18.13;;;12.15;;
61104;SDS011;46987;32.638;-115.438;2023-03-03T09:35:49;17.70;;;12.98;;
61104;SDS011;46987;32.638;-115.438;2023-03-03T09:38:20;20.23;;;14.20;;
61104;SDS011;46987;32.638;-115.438;2023-03-03T09:40:52;25.80;;;17.70;;
61104;SDS011;46987;32.638;-115.438;2023-03-03T09:43:23;19.35;;;15.25;;
61104;SDS011;46987;32.638;-115.438;2023-03-03T09:45:58;20.98;;;15.80;;
61104;SDS011;46987;32.638;-115.438;2023-03-03T09:48:32;17.30;;;13.55;;
61104;SDS011;46987;32.638;-115.438;2023-03-03T09:51:12;23.63;;;14.60;;
61104;SDS011;46987;32.638;-115.438;2023-03-03T09:53:47;18.45;;;12.27;;
61104;SDS011;46987;32.638;-115.438;2023-03-03T09:56:18;21.67;;;11.25;;
61104;SDS011;46987;32.638;-115.438;2023-03-03T09:58:55;17.23;;;10.02;;
61104;SDS011;46987;32.638;-115.438;2023-03-03T10:01:30;18.08;;;9.13;;
61104;SDS011;46987;32.638;-115.438;2023-03-03T10:06:44;14.27;;;7.63;;
61104;SDS011;46987;32.638;-115.438;2023-03-03T10:09:29;16.85;;;7.43;;
61104;SDS011;46987;32.638;-115.438;2023-03-03T10:12:00;14.80;;;8.43;;
61104;SDS011;46987;32.638;-115.438;2023-03-03T10:14:42;15.25;;;7.60;;
61104;SDS011;46987;32.638;-115.438;2023-03-03T10:17:16;12.75;;;6.18;;
61104;SDS011;46987;32.638;-115.438;2023-03-03T10:19:52;14.50;;;6.82;;
61104;SDS011;46987;32.638;-115.438;2023-03-03T10:22:23;13.57;;;6.93;;
61104;SDS011;46987;32.638;-115.438;2023-03-03T10:24:56;12.73;;;6.88;;
61104;SDS011;46987;32.638;-115.438;2023-03-03T10:27:29;13.32;;;6.18;;
61104;SDS011;46987;32.638;-115.438;2023-03-03T10:30:02;13.23;;;6.25;;
61104;SDS011;46987;32.638;-115.438;2023-03-03T10:32:34;13.93;;;6.32;;
61104;SDS011;46987;32.638;-115.438;2023-03-03T10:35:07;11.65;;;6.00;;
61104;SDS011;46987;32.638;-115.438;2023-03-03T10:37:42;14.73;;;5.55;;
61104;SDS011;46987;32.638;-115.438;2023-03-03T10:40:14;13.63;;;5.18;;
61104;SDS011;46987;32.638;-115.438;2023-03-03T10:42:46;11.45;;;4.90;;
61104;SDS011;46987;32.638;-115.438;2023-03-03T10:48:11;10.15;;;4.93;;
61104;SDS011;46987;32.638;-115.438;2023-03-03T10:50:42;10.32;;;5.40;;
61104;SDS011;46987;32.638;-115.438;2023-03-03T10:53:15;11.43;;;5.65;;
61104;SDS011;46987;32.638;-115.438;2023-03-03T10:55:46;9.50;;;4.57;;
61104;SDS011;46987;32.638;-115.438;2023-03-03T10:58:21;10.80;;;4.68;;
61104;SDS011;46987;32.638;-115.438;2023-03-03T11:00:54;10.32;;;4.20;;
61104;SDS011;46987;32.638;-115.438;2023-03-03T11:06:10;9.45;;;3.70;;
61104;SDS011;46987;32.638;-115.438;2023-03-03T11:08:40;11.97;;;3.90;;
61104;SDS011;46987;32.638;-115.438;2023-03-03T11:11:10;9.27;;;3.65;;
61104;SDS011;46987;32.638;-115.438;2023-03-03T11:13:44;9.38;;;3.88;;
61104;SDS011;46987;32.638;-115.438;2023-03-03T11:16:16;7.55;;;3.15;;
61104;SDS011;46987;32.638;-115.438;2023-03-03T11:18:56;10.95;;;3.38;;
61104;SDS011;46987;32.638;-115.438;2023-03-03T11:21:30;8.15;;;3.65;;
61104;SDS011;46987;32.638;-115.438;2023-03-03T11:24:11;8.15;;;3.70;;
61104;SDS011;46987;32.638;-115.438;2023-03-03T11:29:28;8.02;;;4.15;;
61104;SDS011;46987;32.638;-115.438;2023-03-03T11:31:56;8.82;;;3.67;;
61104;SDS011;46987;32.638;-115.438;2023-03-03T11:34:29;10.95;;;3.78;;
61104;SDS011;46987;32.638;-115.438;2023-03-03T11:37:00;9.23;;;4.38;;
61104;SDS011;46987;32.638;-115.438;2023-03-03T11:39:27;7.95;;;3.65;;
61104;SDS011;46987;32.638;-115.438;2023-03-03T11:41:56;9.02;;;3.85;;
61104;SDS011;46987;32.638;-115.438;2023-03-03T11:44:28;9.60;;;4.32;;
61104;SDS011;46987;32.638;-115.438;2023-03-03T11:46:55;11.57;;;4.50;;
61104;SDS011;46987;32.638;-115.438;2023-03-03T11:49:24;11.52;;;4.65;;
61104;SDS011;46987;32.638;-115.438;2023-03-03T11:51:54;11.45;;;5.22;;
61104;SDS011;46987;32.638;-115.438;2023-03-03T11:54:29;9.75;;;5.15;;
61104;SDS011;46987;32.638;-115.438;2023-03-03T11:56:58;13.88;;;5.47;;
61104;SDS011;46987;32.638;-115.438;2023-03-03T11:59:46;14.00;;;7.13;;
61104;SDS011;46987;32.638;-115.438;2023-03-03T12:02:17;13.82;;;7.35;;
61104;SDS011;46987;32.638;-115.438;2023-03-03T12:04:46;13.73;;;7.55;;
61104;SDS011;46987;32.638;-115.438;2023-03-03T12:07:18;17.63;;;7.90;;
61104;SDS011;46987;32.638;-115.438;2023-03-03T12:09:51;13.00;;;7.55;;
61104;SDS011;46987;32.638;-115.438;2023-03-03T12:12:20;14.25;;;8.68;;
61104;SDS011;46987;32.638;-115.438;2023-03-03T12:14:58;12.80;;;7.63;;
61104;SDS011;46987;32.638;-115.438;2023-03-03T12:20:09;23.25;;;9.38;;
61104;SDS011;46987;32.638;-115.438;2023-03-03T12:22:39;17.80;;;10.43;;
61104;SDS011;46987;32.638;-115.438;2023-03-03T12:25:20;21.75;;;11.90;;
61104;SDS011;46987;32.638;-115.438;2023-03-03T12:27:50;23.55;;;11.80;;
61104;SDS011;46987;32.638;-115.438;2023-03-03T12:30:25;21.55;;;11.43;;
61104;SDS011;46987;32.638;-115.438;2023-03-03T12:32:59;23.55;;;11.45;;
61104;SDS011;46987;32.638;-115.438;2023-03-03T12:35:30;25.67;;;12.25;;
61104;SDS011;46987;32.638;-115.438;2023-03-03T12:38:02;20.08;;;12.57;;
61104;SDS011;46987;32.638;-115.438;2023-03-03T12:40:33;23.52;;;12.68;;
61104;SDS011;46987;32.638;-115.438;2023-03-03T12:45:44;25.38;;;13.07;;
61104;SDS011;46987;32.638;-115.438;2023-03-03T12:48:14;26.88;;;13.52;;
61104;SDS011;46987;32.638;-115.438;2023-03-03T12:50:43;21.88;;;12.40;;
61104;SDS011;46987;32.638;-115.438;2023-03-03T12:53:17;21.00;;;12.82;;
61104;SDS011;46987;32.638;-115.438;2023-03-03T12:55:50;26.75;;;13.43;;
61104;SDS011;46987;32.638;-115.438;2023-03-03T12:58:21;23.25;;;14.35;;
61104;SDS011;46987;32.638;-115.438;2023-03-03T13:00:51;26.53;;;13.50;;
61104;SDS011;46987;32.638;-115.438;2023-03-03T13:03:21;25.70;;;13.07;;
61104;SDS011;46987;32.638;-115.438;2023-03-03T13:05:54;25.73;;;13.90;;
61104;SDS011;46987;32.638;-115.438;2023-03-03T13:08:29;24.10;;;13.55;;
61104;SDS011;46987;32.638;-115.438;2023-03-03T13:11:03;25.90;;;13.45;;
61104;SDS011;46987;32.638;-115.438;2023-03-03T13:13:32;22.25;;;12.93;;
61104;SDS011;46987;32.638;-115.438;2023-03-03T13:16:01;27.58;;;12.88;;
61104;SDS011;46987;32.638;-115.438;2023-03-03T13:18:32;21.85;;;13.38;;
61104;SDS011;46987;32.638;-115.438;2023-03-03T13:21:02;22.52;;;11.77;;
61104;SDS011;46987;32.638;-115.438;2023-03-03T13:23:34;22.27;;;12.45;;
61104;SDS011;46987;32.638;-115.438;2023-03-03T13:26:09;23.13;;;12.48;;
61104;SDS011;46987;32.638;-115.438;2023-03-03T13:28:37;26.35;;;13.23;;
61104;SDS011;46987;32.638;-115.438;2023-03-03T13:31:07;21.77;;;12.70;;
61104;SDS011;46987;32.638;-115.438;2023-03-03T13:33:34;24.45;;;13.32;;
61104;SDS011;46987;32.638;-115.438;2023-03-03T13:36:02;21.98;;;11.07;;
61104;SDS011;46987;32.638;-115.438;2023-03-03T13:38:31;20.55;;;11.98;;
61104;SDS011;46987;32.638;-115.438;2023-03-03T13:41:01;23.65;;;11.93;;
61104;SDS011;46987;32.638;-115.438;2023-03-03T13:43:32;27.80;;;12.55;;
61104;SDS011;46987;32.638;-115.438;2023-03-03T13:46:02;19.35;;;12.57;;
61104;SDS011;46987;32.638;-115.438;2023-03-03T13:48:37;29.00;;;11.90;;
61104;SDS011;46987;32.638;-115.438;2023-03-03T13:51:12;31.83;;;16.40;;
61104;SDS011;46987;32.638;-115.438;2023-03-03T13:53:41;29.92;;;15.55;;
61104;SDS011;46987;32.638;-115.438;2023-03-03T13:56:12;24.63;;;16.13;;
61104;SDS011;46987;32.638;-115.438;2023-03-03T13:58:46;26.92;;;16.73;;
61104;SDS011;46987;32.638;-115.438;2023-03-03T14:01:16;24.15;;;15.55;;
61104;SDS011;46987;32.638;-115.438;2023-03-03T14:06:23;20.08;;;13.98;;
61104;SDS011;46987;32.638;-115.438;2023-03-03T14:08:58;20.77;;;12.93;;
61104;SDS011;46987;32.638;-115.438;2023-03-03T14:11:27;17.13;;;11.45;;
61104;SDS011;46987;32.638;-115.438;2023-03-03T14:13:59;25.17;;;10.43;;
61104;SDS011;46987;32.638;-115.438;2023-03-03T14:16:33;23.40;;;9.80;;
61104;SDS011;46987;32.638;-115.438;2023-03-03T14:19:01;19.42;;;9.60;;
61104;SDS011;46987;32.638;-115.438;2023-03-03T14:21:30;17.48;;;10.20;;
61104;SDS011;46987;32.638;-115.438;2023-03-03T14:23:59;17.40;;;8.77;;
61104;SDS011;46987;32.638;-115.438;2023-03-03T14:26:29;17.45;;;7.72;;
61104;SDS011;46987;32.638;-115.438;2023-03-03T14:29:20;14.88;;;8.48;;
61104;SDS011;46987;32.638;-115.438;2023-03-03T14:31:47;16.60;;;8.07;;
61104;SDS011;46987;32.638;-115.438;2023-03-03T14:34:24;21.85;;;9.05;;
61104;SDS011;46987;32.638;-115.438;2023-03-03T14:36:56;21.90;;;8.70;;
61104;SDS011;46987;32.638;-115.438;2023-03-03T14:39:29;18.13;;;8.68;;